createdAt,value
2023-01-10T00:00:25.886Z,6.10
2023-01-10T00:02:52.745Z,6.10
2023-01-10T00:05:19.785Z,6.20
2023-01-10T00:07:47.118Z,6.20
2023-01-10T00:10:14.195Z,6.10
2023-01-10T00:12:59.739Z,6.10
2023-01-10T00:15:26.668Z,6.10
2023-01-10T00:17:53.461Z,6.30
2023-01-10T00:20:20.535Z,6.40
2023-01-10T00:22:47.709Z,6.40
2023-01-10T00:25:14.944Z,6.40
2023-01-10T00:27:42.065Z,6.40
2023-01-10T00:30:14.152Z,6.40
2023-01-10T00:32:45.091Z,6.40
2023-01-10T00:35:12.828Z,6.40
2023-01-10T00:37:40.371Z,6.40
2023-01-10T00:40:11.393Z,6.40
2023-01-10T00:42:57.320Z,6.40
2023-01-10T00:45:25.152Z,6.40
2023-01-10T00:47:52.426Z,6.30
2023-01-10T00:50:19.399Z,6.40
2023-01-10T00:52:46.199Z,6.40
2023-01-10T00:55:12.953Z,6.40
2023-01-10T00:57:39.685Z,6.50
2023-01-10T01:00:09.239Z,6.40
2023-01-10T01:02:36.543Z,6.50
2023-01-10T01:05:04.512Z,6.40
2023-01-10T01:07:31.396Z,6.40
2023-01-10T01:10:16.745Z,6.40
2023-01-10T01:12:43.602Z,6.50
2023-01-10T01:15:10.353Z,6.50
2023-01-10T01:17:37.088Z,6.50
2023-01-10T01:20:04.375Z,6.50
2023-01-10T01:22:31.187Z,6.50
2023-01-10T01:24:57.952Z,6.50
2023-01-10T01:27:24.732Z,6.50
2023-01-10T01:29:51.469Z,6.50
2023-01-10T01:32:18.931Z,6.60
2023-01-10T01:34:45.808Z,6.50
2023-01-10T01:37:12.583Z,6.50
2023-01-10T01:39:39.476Z,6.60
2023-01-10T01:42:06.946Z,6.60
2023-01-10T01:44:39.402Z,6.60
2023-01-10T01:47:27.337Z,6.60
2023-01-10T01:49:54.918Z,6.60
2023-01-10T01:52:30.712Z,6.60
2023-01-10T01:54:59.178Z,6.60
2023-01-10T01:57:28.463Z,6.60
2023-01-10T01:59:56.510Z,6.50
2023-01-10T02:02:30.655Z,6.60
2023-01-10T02:05:03.424Z,6.60
2023-01-10T02:07:34.941Z,6.50
2023-01-10T02:10:06.873Z,6.50
2023-01-10T02:12:33.950Z,6.50
2023-01-10T02:15:01.860Z,6.50
2023-01-10T02:17:28.663Z,6.50
2023-01-10T02:20:03.169Z,6.60
2023-01-10T02:22:57.202Z,6.60
2023-01-10T02:25:42.602Z,6.50
2023-01-10T02:28:41.195Z,6.50
2023-01-10T02:31:20.055Z,6.40
2023-01-10T02:34:10.478Z,6.50
2023-01-10T02:37:27.614Z,6.60
2023-01-10T02:40:00.216Z,6.50
2023-01-10T02:42:35.807Z,6.60
2023-01-10T02:45:12.553Z,6.60
2023-01-10T02:47:41.127Z,6.50
2023-01-10T02:50:25.802Z,6.60
2023-01-10T02:52:52.778Z,6.40
2023-01-10T02:55:24.440Z,6.50
2023-01-10T02:58:03.321Z,6.50
2023-01-10T03:01:10.969Z,6.50
2023-01-10T03:04:03.610Z,6.60
2023-01-10T03:06:56.929Z,6.50
2023-01-10T03:09:35.218Z,6.30
2023-01-10T03:12:10.392Z,6.20
2023-01-10T03:14:38.670Z,6.20
2023-01-10T03:17:09.074Z,6.20
2023-01-10T03:19:40.634Z,6.20
2023-01-10T03:22:10.954Z,6.20
2023-01-10T03:24:43.819Z,6.10
2023-01-10T03:27:14.550Z,6.10
2023-01-10T03:29:50.619Z,6.10
2023-01-10T03:32:21.189Z,6.20
2023-01-10T03:34:48.099Z,6.10
2023-01-10T03:37:30.050Z,6.10
2023-01-10T03:40:22.596Z,6.00
2023-01-10T03:43:37.389Z,5.90
2023-01-10T03:46:10.603Z,5.80
2023-01-10T03:48:41.368Z,5.80
2023-01-10T03:51:09.962Z,5.80
2023-01-10T03:53:39.436Z,5.70
2023-01-10T03:56:07.333Z,5.70
2023-01-10T03:58:34.257Z,5.70
2023-01-10T04:01:01.205Z,5.80
2023-01-10T04:03:27.971Z,5.90
2023-01-10T04:05:54.707Z,5.80
2023-01-10T04:08:21.445Z,5.80
2023-01-10T04:10:51.276Z,5.90
2023-01-10T04:13:18.051Z,5.90
2023-01-10T04:15:44.818Z,6.00
2023-01-10T04:18:13.014Z,5.80
2023-01-10T04:20:39.801Z,5.80
2023-01-10T04:23:06.504Z,5.90
2023-01-10T04:25:33.313Z,5.80
2023-01-10T04:28:00.016Z,5.70
2023-01-10T04:30:27.275Z,5.70
2023-01-10T04:32:54.098Z,5.70
2023-01-10T04:35:20.936Z,5.60
2023-01-10T04:37:47.659Z,5.60
2023-01-10T04:40:17.259Z,5.60
2023-01-10T04:42:44.004Z,5.60
2023-01-10T04:45:13.550Z,5.50
2023-01-10T04:47:40.327Z,5.50
2023-01-10T04:50:07.325Z,5.30
2023-01-10T04:52:34.109Z,5.20
2023-01-10T04:55:00.822Z,5.20
2023-01-10T04:57:27.559Z,5.10
2023-01-10T04:59:54.268Z,5.10
2023-01-10T05:02:21.041Z,5.00
2023-01-10T05:04:47.847Z,5.00
2023-01-10T05:07:15.016Z,4.90
2023-01-10T05:09:42.739Z,4.90
2023-01-10T05:12:09.482Z,5.00
2023-01-10T05:14:36.209Z,5.10
2023-01-10T05:17:02.943Z,5.20
2023-01-10T05:19:29.625Z,5.20
2023-01-10T05:21:56.578Z,5.20
2023-01-10T05:24:23.274Z,5.20
2023-01-10T05:26:49.970Z,5.30
2023-01-10T05:29:16.759Z,5.30
2023-01-10T05:31:43.552Z,5.40
2023-01-10T05:34:13.085Z,5.30
2023-01-10T05:36:40.207Z,5.30
2023-01-10T05:39:07.071Z,5.40
2023-01-10T05:41:34.026Z,5.40
2023-01-10T05:44:00.800Z,5.40
2023-01-10T05:46:27.531Z,5.50
2023-01-10T05:48:54.266Z,5.50
2023-01-10T05:51:20.973Z,5.60
2023-01-10T05:53:48.538Z,5.60
2023-01-10T05:56:16.422Z,5.70
2023-01-10T05:58:44.333Z,5.70
2023-01-10T06:01:13.853Z,5.70
2023-01-10T06:03:40.688Z,5.70
2023-01-10T06:06:07.679Z,5.60
2023-01-10T06:08:36.907Z,5.50
2023-01-10T06:11:04.987Z,5.50
2023-01-10T06:13:32.039Z,5.50
2023-01-10T06:15:59.215Z,5.50
2023-01-10T06:18:26.228Z,5.40
2023-01-10T06:20:53.133Z,5.40
2023-01-10T06:23:19.884Z,5.40
2023-01-10T06:25:46.730Z,5.30
2023-01-10T06:28:14.417Z,5.30
2023-01-10T06:30:43.360Z,5.30
2023-01-10T06:33:11.422Z,5.40
2023-01-10T06:35:39.082Z,5.40
2023-01-10T06:38:05.972Z,5.40
2023-01-10T06:40:32.807Z,5.40
2023-01-10T06:42:59.748Z,5.40
2023-01-10T06:45:26.471Z,5.30
2023-01-10T06:47:53.343Z,5.30
2023-01-10T06:50:20.209Z,5.30
2023-01-10T06:52:47.002Z,5.40
2023-01-10T06:55:13.713Z,5.30
2023-01-10T06:57:40.484Z,5.30
2023-01-10T07:00:08.984Z,5.30
2023-01-10T07:02:36.834Z,5.20
2023-01-10T07:05:03.779Z,5.10
2023-01-10T07:07:30.821Z,5.10
2023-01-10T07:09:59.681Z,5.10
2023-01-10T07:12:26.574Z,5.10
2023-01-10T07:14:53.371Z,5.00
2023-01-10T07:17:20.275Z,5.00
2023-01-10T07:19:46.966Z,4.90
2023-01-10T07:22:13.738Z,4.80
2023-01-10T07:24:40.489Z,4.80
2023-01-10T07:27:07.334Z,4.80
2023-01-10T07:29:34.147Z,4.70
2023-01-10T07:32:00.958Z,4.70
2023-01-10T07:34:27.741Z,4.60
2023-01-10T07:36:54.506Z,4.60
2023-01-10T07:39:21.232Z,4.70
2023-01-10T07:41:48.799Z,4.70
2023-01-10T07:44:16.253Z,4.60
2023-01-10T07:46:43.229Z,4.50
2023-01-10T07:49:10.130Z,4.50
2023-01-10T07:51:36.868Z,4.50
2023-01-10T07:54:03.896Z,4.50
2023-01-10T07:56:30.961Z,4.50
2023-01-10T07:58:57.702Z,4.40
2023-01-10T08:01:26.017Z,4.50
2023-01-10T08:03:53.289Z,4.40
2023-01-10T08:06:20.653Z,4.40
2023-01-10T08:08:47.330Z,4.40
2023-01-10T08:11:14.102Z,4.40
2023-01-10T08:13:41.083Z,4.40
2023-01-10T08:16:09.058Z,4.40
2023-01-10T08:18:35.997Z,4.30
2023-01-10T08:21:02.983Z,4.30
2023-01-10T08:23:30.163Z,4.40
2023-01-10T08:25:58.840Z,4.40
2023-01-10T08:28:25.652Z,4.40
2023-01-10T08:30:55.678Z,4.40
2023-01-10T08:33:23.943Z,4.40
2023-01-10T08:35:51.540Z,4.40
2023-01-10T08:38:18.482Z,4.50
2023-01-10T08:40:45.313Z,4.50
2023-01-10T08:43:12.731Z,4.50
2023-01-10T08:45:39.495Z,4.60
2023-01-10T08:48:09.239Z,4.70
2023-01-10T08:50:36.254Z,4.70
2023-01-10T08:53:03.101Z,4.70
2023-01-10T08:55:31.175Z,4.80
2023-01-10T08:58:03.605Z,4.80
2023-01-10T09:00:30.860Z,4.90
2023-01-10T09:02:57.971Z,5.00
2023-01-10T09:05:28.335Z,5.10
2023-01-10T09:08:02.768Z,5.10
2023-01-10T09:10:30.292Z,5.20
2023-01-10T09:13:01.746Z,5.30
2023-01-10T09:15:36.689Z,5.40
2023-01-10T09:18:05.806Z,5.50
2023-01-10T09:20:35.390Z,5.60
2023-01-10T09:23:07.794Z,5.70
2023-01-10T09:25:35.175Z,5.80
2023-01-10T09:28:03.550Z,5.90
2023-01-10T09:30:31.197Z,6.10
2023-01-10T09:32:59.100Z,6.30
2023-01-10T09:35:27.096Z,6.20
2023-01-10T09:37:58.929Z,6.30
2023-01-10T09:40:44.214Z,6.40
2023-01-10T09:43:28.500Z,6.80
2023-01-10T09:46:23.734Z,6.90
2023-01-10T09:49:05.747Z,6.90
2023-01-10T09:51:38.334Z,7.10
2023-01-10T09:54:29.914Z,7.30
2023-01-10T09:56:59.811Z,7.30
2023-01-10T09:59:33.378Z,7.30
2023-01-10T10:02:05.843Z,7.20
2023-01-10T10:04:36.605Z,7.40
2023-01-10T10:07:07.342Z,7.50
2023-01-10T10:09:35.385Z,7.70
2023-01-10T10:12:31.088Z,7.80
2023-01-10T10:15:04.217Z,7.80
2023-01-10T10:17:52.298Z,7.90
2023-01-10T10:20:24.915Z,8.00
2023-01-10T10:23:06.607Z,8.00
2023-01-10T10:25:47.569Z,8.00
2023-01-10T10:28:31.718Z,8.00
2023-01-10T10:31:01.304Z,7.80
2023-01-10T10:33:48.875Z,7.70
2023-01-10T10:36:26.296Z,8.00
2023-01-10T10:38:57.410Z,8.00
2023-01-10T10:41:35.462Z,8.00
2023-01-10T10:44:26.457Z,8.30
2023-01-10T10:46:53.851Z,8.30
2023-01-10T10:49:41.649Z,8.30
2023-01-10T10:52:25.611Z,8.40
2023-01-10T10:54:53.908Z,8.50
2023-01-10T10:57:27.252Z,8.40
2023-01-10T10:59:54.761Z,8.40
2023-01-10T11:02:28.167Z,8.50
2023-01-10T11:05:04.717Z,8.30
2023-01-10T11:07:37.151Z,8.40
2023-01-10T11:10:20.981Z,8.60
2023-01-10T11:12:51.165Z,8.50
2023-01-10T11:15:42.725Z,8.30
2023-01-10T11:18:21.467Z,8.20
2023-01-10T11:20:58.150Z,8.30
2023-01-10T11:23:36.968Z,8.30
2023-01-10T11:26:26.467Z,8.30
2023-01-10T11:29:06.623Z,8.30
2023-01-10T11:31:34.802Z,8.50
2023-01-10T11:34:05.853Z,8.40
2023-01-10T11:36:58.312Z,8.50
2023-01-10T11:39:26.657Z,8.50
2023-01-10T11:41:53.541Z,8.40
2023-01-10T11:44:26.772Z,8.40
2023-01-10T11:47:05.318Z,8.40
2023-01-10T11:49:38.653Z,8.40
2023-01-10T11:52:15.876Z,8.50
2023-01-10T11:54:43.058Z,8.50
2023-01-10T11:57:23.465Z,8.50
2023-01-10T11:59:54.111Z,8.30
2023-01-10T12:02:23.162Z,8.10
2023-01-10T12:04:52.352Z,8.30
2023-01-10T12:07:19.210Z,8.30
2023-01-10T12:09:56.321Z,8.20
2023-01-10T12:12:31.786Z,8.20
2023-01-10T12:15:00.465Z,8.30
2023-01-10T12:17:36.923Z,8.40
2023-01-10T12:20:12.739Z,8.40
2023-01-10T12:22:42.691Z,8.40
2023-01-10T12:25:19.123Z,8.40
2023-01-10T12:27:50.083Z,8.50
2023-01-10T12:30:31.150Z,8.40
2023-01-10T12:33:02.035Z,8.50
2023-01-10T12:35:40.737Z,8.30
2023-01-10T12:38:48.372Z,8.20
2023-01-10T12:41:42.621Z,8.20
2023-01-10T12:44:43.390Z,8.20
2023-01-10T12:47:22.100Z,8.40
2023-01-10T12:50:01.326Z,8.50
2023-01-10T12:52:42.789Z,8.40
2023-01-10T12:55:15.024Z,8.10
2023-01-10T12:57:45.120Z,8.10
2023-01-10T13:00:48.501Z,8.10
2023-01-10T13:03:24.631Z,8.20
2023-01-10T13:05:53.075Z,8.10
2023-01-10T13:08:25.089Z,8.00
2023-01-10T13:10:55.037Z,8.10
2023-01-10T13:13:35.431Z,8.10
2023-01-10T13:16:21.034Z,8.10
2023-01-10T13:19:04.981Z,8.10
2023-01-10T13:21:33.864Z,7.90
2023-01-10T13:24:06.411Z,8.00
2023-01-10T13:27:05.821Z,8.00
2023-01-10T13:29:43.305Z,8.20
2023-01-10T13:32:36.436Z,8.20
2023-01-10T13:35:19.892Z,8.20
2023-01-10T13:37:53.511Z,8.10
2023-01-10T13:40:28.242Z,8.00
2023-01-10T13:43:31.402Z,8.00
2023-01-10T13:46:18.517Z,8.00
2023-01-10T13:48:51.532Z,8.00
2023-01-10T13:51:22.135Z,7.90
2023-01-10T13:53:51.639Z,7.80
2023-01-10T13:56:32.912Z,7.80
2023-01-10T13:59:18.319Z,7.70
2023-01-10T14:02:10.620Z,7.80
2023-01-10T14:04:47.905Z,7.80
2023-01-10T14:07:31.455Z,7.60
2023-01-10T14:10:11.067Z,7.60
2023-01-10T14:12:55.226Z,7.60
2023-01-10T14:15:29.726Z,7.50
2023-01-10T14:17:58.212Z,7.60
2023-01-10T14:20:25.667Z,7.60
2023-01-10T14:23:05.679Z,7.60
2023-01-10T14:25:37.769Z,7.60
2023-01-10T14:28:06.118Z,7.60
2023-01-10T14:30:35.941Z,7.50
2023-01-10T14:33:13.575Z,7.50
2023-01-10T14:35:47.182Z,7.50
2023-01-10T14:38:29.486Z,7.60
2023-01-10T14:41:01.781Z,7.50
2023-01-10T14:43:37.471Z,7.50
2023-01-10T14:46:04.436Z,7.50
2023-01-10T14:48:34.391Z,7.50
2023-01-10T14:51:22.618Z,7.50
2023-01-10T14:54:01.518Z,7.50
2023-01-10T14:56:41.802Z,7.50
2023-01-10T14:59:25.251Z,7.50
2023-01-10T15:02:03.809Z,7.50
2023-01-10T15:04:36.306Z,7.40
2023-01-10T15:07:11.897Z,7.40
2023-01-10T15:09:39.329Z,7.40
2023-01-10T15:12:12.448Z,7.50
2023-01-10T15:14:39.416Z,7.50
2023-01-10T15:17:09.044Z,7.50
2023-01-10T15:19:38.265Z,7.50
2023-01-10T15:22:31.082Z,7.40
2023-01-10T15:25:08.078Z,7.40
2023-01-10T15:27:36.910Z,7.40
2023-01-10T15:30:09.048Z,7.50
2023-01-10T15:32:39.473Z,7.40
2023-01-10T15:35:08.869Z,7.40
2023-01-10T15:37:39.262Z,7.40
2023-01-10T15:40:19.388Z,7.40
2023-01-10T15:42:46.185Z,7.40
2023-01-10T15:45:37.716Z,7.40
2023-01-10T15:48:05.234Z,7.40
2023-01-10T15:50:33.800Z,7.40
2023-01-10T15:53:07.234Z,7.50
2023-01-10T15:55:50.482Z,7.50
2023-01-10T15:58:22.966Z,7.40
2023-01-10T16:00:53.289Z,7.30
2023-01-10T16:03:39.105Z,7.30
2023-01-10T16:06:12.366Z,7.20
2023-01-10T16:08:39.198Z,7.00
2023-01-10T16:11:39.609Z,6.90
2023-01-10T16:14:06.374Z,6.80
2023-01-10T16:16:33.386Z,6.60
2023-01-10T16:19:02.800Z,6.50
2023-01-10T16:21:35.609Z,6.60
2023-01-10T16:24:03.359Z,6.50
2023-01-10T16:26:30.354Z,6.50
2023-01-10T16:28:57.208Z,6.50
2023-01-10T16:31:24.047Z,6.50
2023-01-10T16:33:50.827Z,6.30
2023-01-10T16:36:20.864Z,6.30
2023-01-10T16:38:48.107Z,6.30
2023-01-10T16:41:33.612Z,6.30
2023-01-10T16:44:00.823Z,6.20
2023-01-10T16:46:28.157Z,6.20
2023-01-10T16:48:55.128Z,6.10
2023-01-10T16:51:27.641Z,6.10
2023-01-10T16:53:54.981Z,6.10
2023-01-10T16:56:27.403Z,6.10
2023-01-10T16:58:55.413Z,6.10
2023-01-10T17:01:26.439Z,6.20
2023-01-10T17:03:54.088Z,6.20
2023-01-10T17:06:21.080Z,6.10
2023-01-10T17:08:49.513Z,6.20
2023-01-10T17:11:40.380Z,6.30
2023-01-10T17:14:09.343Z,6.30
2023-01-10T17:16:36.206Z,6.30
2023-01-10T17:19:03.005Z,6.40
2023-01-10T17:21:29.823Z,6.40
2023-01-10T17:23:56.586Z,6.30
2023-01-10T17:26:23.391Z,6.30
2023-01-10T17:28:50.376Z,6.40
2023-01-10T17:31:19.756Z,6.40
2023-01-10T17:33:48.637Z,6.30
2023-01-10T17:36:17.582Z,6.40
2023-01-10T17:38:45.700Z,6.40
2023-01-10T17:41:12.414Z,6.30
2023-01-10T17:43:39.572Z,6.30
2023-01-10T17:46:06.714Z,6.30
2023-01-10T17:48:34.764Z,6.40
2023-01-10T17:51:02.891Z,6.40
2023-01-10T17:53:30.381Z,6.40
2023-01-10T17:55:58.318Z,6.30
2023-01-10T17:58:25.377Z,6.30
2023-01-10T18:00:52.268Z,6.40
2023-01-10T18:03:19.302Z,6.20
2023-01-10T18:05:54.540Z,6.30
2023-01-10T18:08:21.844Z,6.20
2023-01-10T18:10:49.371Z,6.20
2023-01-10T18:13:17.598Z,6.20
2023-01-10T18:15:47.309Z,6.20
2023-01-10T18:18:14.094Z,6.20
2023-01-10T18:20:44.487Z,6.20
2023-01-10T18:23:22.122Z,6.10
2023-01-10T18:26:02.319Z,6.10
2023-01-10T18:28:40.520Z,6.10
2023-01-10T18:31:18.713Z,6.30
2023-01-10T18:33:46.753Z,6.30
2023-01-10T18:36:17.397Z,6.40
2023-01-10T18:38:45.826Z,6.30
2023-01-10T18:41:13.045Z,6.30
2023-01-10T18:43:40.046Z,6.40
2023-01-10T18:46:12.794Z,6.40
2023-01-10T18:48:40.166Z,6.50
2023-01-10T18:51:08.984Z,6.40
2023-01-10T18:53:35.921Z,6.50
2023-01-10T18:56:05.176Z,6.40
2023-01-10T18:58:40.585Z,6.50
2023-01-10T19:01:08.154Z,6.50
2023-01-10T19:03:35.552Z,6.60
2023-01-10T19:06:04.013Z,6.60
2023-01-10T19:08:31.000Z,6.50
2023-01-10T19:11:12.417Z,6.60
2023-01-10T19:13:40.783Z,6.60
2023-01-10T19:16:13.629Z,6.70
2023-01-10T19:18:41.126Z,6.70
2023-01-10T19:21:14.819Z,6.70
2023-01-10T19:23:46.173Z,6.70
2023-01-10T19:26:13.915Z,6.70
2023-01-10T19:28:42.002Z,6.70
2023-01-10T19:31:09.163Z,6.80
2023-01-10T19:33:37.593Z,6.80
2023-01-10T19:36:06.755Z,6.80
2023-01-10T19:38:34.058Z,6.80
2023-01-10T19:41:00.867Z,6.80
2023-01-10T19:43:28.096Z,6.80
2023-01-10T19:45:55.137Z,6.80
2023-01-10T19:48:23.021Z,6.80
2023-01-10T19:50:49.806Z,6.90
2023-01-10T19:53:16.831Z,6.90
2023-01-10T19:55:43.550Z,7.00
2023-01-10T19:58:10.394Z,7.00
2023-01-10T20:00:37.254Z,7.00
2023-01-10T20:03:05.232Z,7.10
2023-01-10T20:05:34.750Z,7.00
2023-01-10T20:08:02.112Z,7.00
2023-01-10T20:10:28.979Z,7.10
2023-01-10T20:12:55.769Z,7.10
2023-01-10T20:15:22.582Z,7.10
2023-01-10T20:17:49.357Z,7.10
2023-01-10T20:20:19.551Z,7.20
2023-01-10T20:22:47.832Z,7.20
2023-01-10T20:25:14.728Z,7.20
2023-01-10T20:27:41.613Z,7.30
2023-01-10T20:30:09.305Z,7.30
2023-01-10T20:32:36.127Z,7.30
2023-01-10T20:35:02.915Z,7.20
2023-01-10T20:37:29.834Z,7.30
2023-01-10T20:39:57.012Z,7.30
2023-01-10T20:42:23.835Z,7.30
2023-01-10T20:44:50.602Z,7.30
2023-01-10T20:47:17.579Z,7.30
2023-01-10T20:49:44.420Z,7.30
2023-01-10T20:52:11.235Z,7.30
2023-01-10T20:54:38.854Z,7.30
2023-01-10T20:57:05.779Z,7.30
2023-01-10T20:59:33.721Z,7.40
2023-01-10T21:02:02.106Z,7.40
2023-01-10T21:04:29.694Z,7.40
2023-01-10T21:06:56.547Z,7.40
2023-01-10T21:09:23.399Z,7.40
2023-01-10T21:12:02.095Z,7.50
2023-01-10T21:14:34.189Z,7.50
2023-01-10T21:17:01.007Z,7.50
2023-01-10T21:19:27.862Z,7.50
2023-01-10T21:21:54.734Z,7.50
2023-01-10T21:24:22.941Z,7.50
2023-01-10T21:26:49.793Z,7.50
2023-01-10T21:29:16.640Z,7.60
2023-01-10T21:31:43.441Z,7.60
2023-01-10T21:34:10.223Z,7.50
2023-01-10T21:36:37.087Z,7.60
2023-01-10T21:39:03.965Z,7.60
2023-01-10T21:41:49.395Z,7.70
2023-01-10T21:44:16.125Z,7.70
2023-01-10T21:46:44.648Z,7.80
2023-01-10T21:49:11.505Z,7.80
2023-01-10T21:51:38.346Z,7.90
2023-01-10T21:54:05.140Z,7.80
2023-01-10T21:56:32.075Z,7.80
2023-01-10T21:58:58.844Z,7.90
2023-01-10T22:01:25.654Z,7.90
2023-01-10T22:03:52.652Z,7.90
2023-01-10T22:06:19.491Z,7.90
2023-01-10T22:08:46.342Z,8.00
2023-01-10T22:11:13.076Z,7.90
2023-01-10T22:13:40.423Z,7.90
2023-01-10T22:16:07.637Z,7.90
2023-01-10T22:18:34.436Z,7.80
2023-01-10T22:21:01.385Z,7.90
2023-01-10T22:23:29.829Z,7.90
2023-01-10T22:26:07.986Z,7.80
2023-01-10T22:28:34.939Z,7.70
2023-01-10T22:31:02.409Z,7.70
2023-01-10T22:33:35.187Z,7.50
2023-01-10T22:36:13.656Z,7.50
2023-01-10T22:38:41.687Z,7.50
2023-01-10T22:41:13.941Z,7.40
2023-01-10T22:43:41.155Z,7.40
2023-01-10T22:46:09.675Z,7.30
2023-01-10T22:48:37.500Z,7.30
2023-01-10T22:51:05.590Z,7.40
2023-01-10T22:53:32.862Z,7.40
2023-01-10T22:56:00.806Z,7.40
2023-01-10T22:58:27.756Z,7.40
2023-01-10T23:00:54.528Z,7.30
2023-01-10T23:03:21.673Z,7.30
2023-01-10T23:05:48.642Z,7.30
2023-01-10T23:08:15.477Z,7.30
2023-01-10T23:10:42.308Z,7.30
2023-01-10T23:13:09.253Z,7.30
2023-01-10T23:15:36.006Z,7.30
2023-01-10T23:18:02.777Z,7.30
2023-01-10T23:20:29.553Z,7.30
2023-01-10T23:22:56.380Z,7.30
2023-01-10T23:25:23.209Z,7.30
2023-01-10T23:27:49.967Z,7.30
2023-01-10T23:30:16.990Z,7.30
2023-01-10T23:32:43.787Z,7.30
2023-01-10T23:35:10.675Z,7.30
2023-01-10T23:37:37.464Z,7.40
2023-01-10T23:40:04.610Z,7.50
2023-01-10T23:42:31.438Z,7.50
2023-01-10T23:44:58.185Z,7.40
2023-01-10T23:47:24.992Z,7.40
2023-01-10T23:49:51.800Z,7.40
2023-01-10T23:52:18.639Z,7.30
2023-01-10T23:54:45.352Z,7.30
2023-01-10T23:57:12.086Z,7.30
2023-01-10T23:59:38.822Z,7.30
